»·PEaware :: DAL1935 KSLC-KDEN

DAL1935 :: KSLC-KDEN

FLIGHT INFORMATION

Flight Status: Arrived
Operator:
Delta Air Lines
More flights by this operator :: More flights under this callsign
Pilot: Ben F. (2808)
Aircraft: MCDONNELL-DOUGLAS MD-82
(MD82)
More flights by this aircraft type
Origin: KSLC Salt Lake City Intl
United States
Destination: KDEN Denver Intl
United States
More flights between these airports :: More routes between these airports
Route: LEETZ6 CHE KAILE2
File this flight plan on PilotEdge
Remarks: PBN / A1B2 NAV / RNVD1E2A1 REG / N9405T EET / KZDV0025 RMK / SIMBRIEF
Altitude:
(Current/Filed)
31,000ft
Speed:
(Current/Filed)
442kts
Departed: 11-Mar-18 08:53 AM
Arrived: 11-Mar-18 09:54 AM
Distance/Time
Traveled:
339nm/1:00
Distance/Time
To Go:
Arrived

Flight Plot

Page will automatically refresh every two minutes.

Flight plan parsing failed; only flown route is shown


Map Options




Map Legend


Flown Route
Filed Route
Departure Airport
Arrival Airport
Navaid (VOR, NDB)
Fix

Horizontal Profiles

Position Reports

Time Latitude Longitude Heading Altitude Ground
Speed
11-Mar-18 08:26 40.787842 -111.982065 103 4236ft 0kts
11-Mar-18 08:27 40.787842 -111.982065 103 4236ft 0kts
11-Mar-18 08:28 40.787842 -111.982065 103 4236ft 0kts
11-Mar-18 08:29 40.787842 -111.982065 103 4236ft 0kts
11-Mar-18 08:30 40.787842 -111.982065 103 4236ft 0kts
11-Mar-18 08:31 40.787842 -111.982065 103 4236ft 0kts
11-Mar-18 08:32 40.787842 -111.982065 103 4236ft 0kts
11-Mar-18 08:33 40.787842 -111.982065 103 4236ft 0kts
11-Mar-18 08:34 40.787842 -111.982065 103 4236ft 0kts
11-Mar-18 08:35 40.787842 -111.982065 103 4236ft 0kts
11-Mar-18 08:36 40.787842 -111.982065 103 4236ft 0kts
11-Mar-18 08:37 40.787842 -111.982065 103 4236ft 0kts
11-Mar-18 08:38 40.787842 -111.982065 103 4236ft 0kts
11-Mar-18 08:39 40.787842 -111.982065 103 4236ft 0kts
11-Mar-18 08:40 40.787842 -111.982065 103 4236ft 0kts
11-Mar-18 08:41 40.787842 -111.982065 103 4236ft 0kts
11-Mar-18 08:42 40.787867 -111.982715 70 4236ft 2kts
11-Mar-18 08:43 40.787532 -111.982952 356 4236ft 0kts
11-Mar-18 08:44 40.787532 -111.982952 356 4236ft 0kts
11-Mar-18 08:45 40.788256 -111.982953 3 4236ft 8kts
11-Mar-18 08:46 40.789999 -111.981277 85 4236ft 11kts
11-Mar-18 08:47 40.790360 -111.977926 84 4236ft 11kts
11-Mar-18 08:48 40.794186 -111.977616 355 4236ft 22kts
11-Mar-18 08:49 40.800120 -111.978323 354 4236ft 18kts
11-Mar-18 08:50 40.806034 -111.979017 354 4236ft 19kts
11-Mar-18 08:51 40.807465 -111.977535 115 4236ft 13kts
11-Mar-18 08:52 40.791056 -111.974992 175 4236ft 121kts
11-Mar-18 08:53 40.746858 -111.975084 199 5509ft 177kts
11-Mar-18 08:54 40.729267 -112.035064 289 7034ft 222kts
11-Mar-18 08:55 40.775271 -112.097393 320 9419ft 252kts
11-Mar-18 08:56 40.832044 -112.164903 316 10925ft 287kts
11-Mar-18 08:57 40.896859 -112.229903 343 13140ft 304kts
11-Mar-18 08:58 40.987628 -112.243937 8 14502ft 352kts
11-Mar-18 08:59 41.046266 -112.150197 89 16645ft 365kts
11-Mar-18 09:00 41.014470 -112.022302 121 18826ft 376kts
11-Mar-18 09:01 40.976377 -111.891040 103 20849ft 393kts
11-Mar-18 09:02 40.951292 -111.747900 105 22585ft 407kts
11-Mar-18 09:03 40.923033 -111.600613 100 24152ft 419kts
11-Mar-18 09:04 40.911918 -111.445576 94 25532ft 429kts
11-Mar-18 09:05 40.897834 -111.287459 100 26734ft 438kts
11-Mar-18 09:06 40.876956 -111.127287 100 27788ft 447kts
11-Mar-18 09:07 40.857721 -110.963449 99 28729ft 455kts
11-Mar-18 09:08 40.837946 -110.796920 100 29591ft 461kts
11-Mar-18 09:09 40.816864 -110.629609 100 30516ft 463kts
11-Mar-18 09:10 40.796188 -110.462073 100 31301ft 466kts
11-Mar-18 09:11 40.775284 -110.294511 100 31317ft 464kts
11-Mar-18 09:12 40.754250 -110.127265 100 31317ft 464kts
11-Mar-18 09:13 40.736072 -109.959380 95 31316ft 464kts
11-Mar-18 09:14 40.725116 -109.789291 94 31315ft 465kts
11-Mar-18 09:15 40.712839 -109.619942 95 31315ft 465kts
11-Mar-18 09:16 40.700685 -109.450020 95 31317ft 465kts
11-Mar-18 09:17 40.687778 -109.280452 95 31318ft 465kts
11-Mar-18 09:18 40.674824 -109.110944 95 31319ft 466kts
11-Mar-18 09:19 40.661889 -108.940586 95 31320ft 467kts
11-Mar-18 09:20 40.648352 -108.770683 95 31322ft 468kts
11-Mar-18 09:21 40.634318 -108.600520 95 31322ft 469kts
11-Mar-18 09:22 40.620504 -108.429524 95 31321ft 470kts
11-Mar-18 09:23 40.606515 -108.258989 95 31319ft 469kts
11-Mar-18 09:24 40.591832 -108.088381 95 31318ft 470kts
11-Mar-18 09:25 40.579412 -107.945488 95 31319ft 470kts
11-Mar-18 09:26 40.562121 -107.746607 95 31314ft 470kts
11-Mar-18 09:27 40.546547 -107.575658 95 31314ft 470kts
11-Mar-18 09:28 40.533680 -107.433776 95 31315ft 469kts
11-Mar-18 09:29 40.518669 -107.263339 94 31315ft 470kts
11-Mar-18 09:30 40.508642 -107.091991 91 31316ft 469kts
11-Mar-18 09:31 40.499996 -106.921099 91 31316ft 470kts
11-Mar-18 09:32 40.489149 -106.721067 91 31318ft 470kts
11-Mar-18 09:33 40.481446 -106.578487 91 31331ft 471kts
11-Mar-18 09:34 40.472058 -106.407089 91 31348ft 471kts
11-Mar-18 09:35 40.461184 -106.234978 93 31368ft 473kts
11-Mar-18 09:36 40.448956 -106.062567 91 29906ft 475kts
11-Mar-18 09:37 40.431856 -105.892940 99 26950ft 464kts
11-Mar-18 09:38 40.403376 -105.731447 99 24177ft 442kts
11-Mar-18 09:39 40.379454 -105.578229 98 21575ft 412kts
11-Mar-18 09:40 40.357477 -105.441489 98 19516ft 351kts
11-Mar-18 09:41 40.341192 -105.324822 96 17801ft 310kts
11-Mar-18 09:42 40.325401 -105.209963 97 16231ft 314kts
11-Mar-18 09:43 40.310264 -105.099946 96 14688ft 298kts
11-Mar-18 09:44 40.295812 -104.995800 97 13342ft 279kts
11-Mar-18 09:45 40.282108 -104.897608 98 12421ft 270kts
11-Mar-18 09:46 40.234396 -104.823284 138 11211ft 272kts
11-Mar-18 09:47 40.175559 -104.759281 138 10444ft 282kts
11-Mar-18 09:48 40.114886 -104.693007 138 9138ft 279kts
11-Mar-18 09:49 40.046741 -104.688845 194 8572ft 246kts
11-Mar-18 09:50 39.985546 -104.685332 178 7251ft 202kts
11-Mar-18 09:51 39.933760 -104.686311 177 6103ft 173kts
11-Mar-18 09:52 39.888776 -104.686899 178 5441ft 147kts
11-Mar-18 09:53 39.869075 -104.687123 180 5440ft 37kts
11-Mar-18 09:54 39.864293 -104.684376 108 5440ft 13kts
11-Mar-18 09:55 39.860232 -104.683938 180 5440ft 15kts
11-Mar-18 09:56 39.856759 -104.681434 98 5440ft 18kts
11-Mar-18 09:57 39.854958 -104.677173 173 5440ft 7kts
11-Mar-18 09:58 39.854555 -104.677179 183 5440ft 0kts
11-Mar-18 09:59 39.854555 -104.677179 183 5440ft 0kts
11-Mar-18 10:00 39.854555 -104.677179 183 5440ft 0kts
11-Mar-18 10:01 39.854555 -104.677179 183 5440ft 0kts

Navigation Log

Ident Type
Flight plan parsing failed, navigation log unavailable